Georgia, Indiana
Current Conditions -  °F | °C
As of 12:53 AM on Wednesday 22 Oct 2014 (Local Time) from KBMG Reporting Station
Overcast Overcast  
Wind Chill: 43°   Ceiling: 4000
Heat Index: 46°   Visibility: 10mi
Dew Point: 43°   Wind: 6mph
Humidity: 89%   Direction: 360°N
Pressure: 30.2"   Gusts: NA
Location:  38.7366°N, 86.4546°W
Report Text: KBMG 220453Z AUTO 36005KT 10SM FEW028 OVC040 08/06 A3020 RMK AO2 SLP227 T00780061 401560061 $
Loading
Personal Weather Stations






























Interactive Weather Map
Tropical Storm Tracking
New forecast layout! Learn more

10-Day Weather Forecast

Advertisements
Track Severe Weather on mobile